createdAt,value
2019-03-06T00:01:47.779Z,12.80
2019-03-06T00:04:16.609Z,13.47
2019-03-06T00:06:52.370Z,15.90
2019-03-06T00:09:21.046Z,14.00
2019-03-06T00:11:49.836Z,15.30
2019-03-06T00:14:25.440Z,15.80
2019-03-06T00:16:54.482Z,15.33
2019-03-06T00:19:30.131Z,15.97
2019-03-06T00:21:59.329Z,13.77
2019-03-06T00:24:28.127Z,15.23
2019-03-06T00:27:03.574Z,17.37
2019-03-06T00:29:32.354Z,15.10
2019-03-06T00:32:08.420Z,15.03
2019-03-06T00:34:37.305Z,15.50
2019-03-06T00:37:05.898Z,16.80
2019-03-06T00:39:43.484Z,16.63
2019-03-06T00:42:12.274Z,16.30
2019-03-06T00:44:47.516Z,13.53
2019-03-06T00:47:22.869Z,14.27
2019-03-06T00:50:05.882Z,15.80
2019-03-06T00:52:34.566Z,16.30
2019-03-06T00:55:03.870Z,16.03
2019-03-06T00:57:40.035Z,14.30
2019-03-06T01:00:17.558Z,17.00
2019-03-06T01:02:53.272Z,16.00
2019-03-06T01:05:21.968Z,16.13
2019-03-06T01:07:50.856Z,15.77
2019-03-06T01:10:26.505Z,16.37
2019-03-06T01:12:55.341Z,15.43
2019-03-06T01:15:24.182Z,15.47
2019-03-06T01:18:00.856Z,14.83
2019-03-06T01:20:29.639Z,14.83
2019-03-06T01:23:05.602Z,14.13
2019-03-06T01:25:34.193Z,15.97
2019-03-06T01:28:02.894Z,14.93
2019-03-06T01:30:38.438Z,14.57
2019-03-06T01:33:20.419Z,15.33
2019-03-06T01:36:03.647Z,14.30
2019-03-06T01:38:48.718Z,15.33
2019-03-06T01:41:26.415Z,13.77
2019-03-06T01:43:56.747Z,15.13
2019-03-06T01:46:31.980Z,15.20
2019-03-06T01:49:07.631Z,13.47
2019-03-06T01:51:50.145Z,14.50
2019-03-06T01:54:19.031Z,15.60
2019-03-06T01:56:48.131Z,17.07
2019-03-06T01:59:23.164Z,13.83
2019-03-06T02:01:51.748Z,14.77
2019-03-06T02:04:27.912Z,16.73
2019-03-06T02:06:56.800Z,13.47
2019-03-06T02:09:27.628Z,13.00
2019-03-06T02:12:03.698Z,15.87
2019-03-06T02:14:32.387Z,15.43
2019-03-06T02:17:08.038Z,15.37
2019-03-06T02:19:36.721Z,15.77
2019-03-06T02:22:05.439Z,15.90
2019-03-06T02:24:41.438Z,16.10
2019-03-06T02:27:10.052Z,15.00
2019-03-06T02:29:45.908Z,14.57
2019-03-06T02:32:14.902Z,15.83
2019-03-06T02:34:43.703Z,15.43
2019-03-06T02:37:18.724Z,14.37
2019-03-06T02:39:47.514Z,16.43
2019-03-06T02:42:22.963Z,14.27
2019-03-06T02:44:51.586Z,14.57
2019-03-06T02:47:33.750Z,19.37
2019-03-06T02:50:12.074Z,17.20
2019-03-06T02:52:53.855Z,17.57
2019-03-06T02:55:22.753Z,18.60
2019-03-06T02:57:53.071Z,16.93
2019-03-06T03:00:42.552Z,16.37
2019-03-06T03:03:37.343Z,16.20
2019-03-06T03:06:07.669Z,18.03
2019-03-06T03:08:43.013Z,16.00
2019-03-06T03:11:11.713Z,15.57
2019-03-06T03:13:40.585Z,16.13
2019-03-06T03:16:15.625Z,15.50
2019-03-06T03:18:44.332Z,18.03
2019-03-06T03:21:19.964Z,15.97
2019-03-06T03:23:48.550Z,18.03
2019-03-06T03:26:17.443Z,15.40
2019-03-06T03:28:52.677Z,15.37
2019-03-06T03:31:21.265Z,17.00
2019-03-06T03:33:57.031Z,18.90
2019-03-06T03:36:25.706Z,16.00
2019-03-06T03:38:54.391Z,18.47
2019-03-06T03:41:30.857Z,18.67
2019-03-06T03:43:59.456Z,17.90
2019-03-06T03:46:34.479Z,15.30
2019-03-06T03:49:10.130Z,17.07
2019-03-06T03:51:52.036Z,18.50
2019-03-06T03:54:27.671Z,14.93
2019-03-06T03:57:03.383Z,16.90
2019-03-06T03:59:32.215Z,17.63
2019-03-06T04:02:00.923Z,17.33
2019-03-06T04:04:36.862Z,16.87
2019-03-06T04:07:05.661Z,16.27
2019-03-06T04:09:40.888Z,15.07
2019-03-06T04:12:09.584Z,17.80
2019-03-06T04:14:38.259Z,14.43
2019-03-06T04:17:14.128Z,15.23
2019-03-06T04:19:42.699Z,15.30
2019-03-06T04:22:19.065Z,15.00
2019-03-06T04:24:47.635Z,17.23
2019-03-06T04:27:16.390Z,16.97
2019-03-06T04:29:51.791Z,16.27
2019-03-06T04:32:20.773Z,16.40
2019-03-06T04:34:56.735Z,14.93
2019-03-06T04:37:25.344Z,14.73
2019-03-06T04:39:54.047Z,16.70
2019-03-06T04:42:29.859Z,17.50
2019-03-06T04:44:58.544Z,19.23
2019-03-06T04:47:34.398Z,16.10
2019-03-06T04:50:09.949Z,14.93
2019-03-06T04:52:52.677Z,15.03
2019-03-06T04:55:28.019Z,16.13
2019-03-06T04:57:56.691Z,15.70
2019-03-06T05:00:32.551Z,14.30
2019-03-06T05:03:07.605Z,18.03
2019-03-06T05:05:36.150Z,15.70
2019-03-06T05:08:05.712Z,17.60
2019-03-06T05:10:41.013Z,19.80
2019-03-06T05:13:09.514Z,18.27
2019-03-06T05:15:45.042Z,16.90
2019-03-06T05:18:27.455Z,16.97
2019-03-06T05:21:02.898Z,19.83
2019-03-06T05:23:31.786Z,18.53
2019-03-06T05:26:00.471Z,21.27
2019-03-06T05:28:36.126Z,20.40
2019-03-06T05:31:04.673Z,19.67
2019-03-06T05:33:40.976Z,20.67
2019-03-06T05:36:18.466Z,19.83
2019-03-06T05:39:12.146Z,23.67
2019-03-06T05:41:40.824Z,22.60
2019-03-06T05:44:09.714Z,23.13
2019-03-06T05:46:44.762Z,23.07
2019-03-06T05:49:13.345Z,22.93
2019-03-06T05:51:55.689Z,21.50
2019-03-06T05:54:30.850Z,20.80
2019-03-06T05:57:12.615Z,21.63
2019-03-06T05:59:41.265Z,23.37
2019-03-06T06:02:09.968Z,20.33
2019-03-06T06:04:44.879Z,19.30
2019-03-06T06:07:13.783Z,16.70
2019-03-06T06:09:50.191Z,17.60
2019-03-06T06:12:18.763Z,20.97
2019-03-06T06:14:47.408Z,23.17
2019-03-06T06:17:22.657Z,20.20
2019-03-06T06:19:51.330Z,18.40
2019-03-06T06:22:28.128Z,22.50
2019-03-06T06:24:57.071Z,20.83
2019-03-06T06:27:26.000Z,20.60
2019-03-06T06:30:00.982Z,18.60
2019-03-06T06:32:29.617Z,17.53
2019-03-06T06:35:05.321Z,18.47
2019-03-06T06:37:34.055Z,20.73
2019-03-06T06:40:02.843Z,20.90
2019-03-06T06:42:39.018Z,19.07
2019-03-06T06:45:10.290Z,20.03
2019-03-06T06:48:05.434Z,23.07
2019-03-06T06:50:40.900Z,22.37
2019-03-06T06:53:45.033Z,18.97
2019-03-06T06:56:40.854Z,18.87
2019-03-06T06:59:31.867Z,18.83
2019-03-06T07:02:13.858Z,17.70
2019-03-06T07:04:56.558Z,20.17
2019-03-06T07:07:26.800Z,18.23
2019-03-06T07:10:20.729Z,19.50
2019-03-06T07:12:53.655Z,19.90
2019-03-06T07:15:45.179Z,17.10
2019-03-06T07:18:15.506Z,15.57
2019-03-06T07:21:09.177Z,15.97
2019-03-06T07:23:42.164Z,14.87
2019-03-06T07:26:33.996Z,14.87
2019-03-06T07:29:13.734Z,16.57
2019-03-06T07:31:59.945Z,17.23
2019-03-06T07:34:48.710Z,18.70
2019-03-06T07:37:31.834Z,16.07
2019-03-06T07:40:00.841Z,15.50
2019-03-06T07:42:33.553Z,13.63
2019-03-06T07:45:48.289Z,15.37
2019-03-06T07:48:18.590Z,15.63
2019-03-06T07:50:55.696Z,15.47
2019-03-06T07:53:54.258Z,13.77
2019-03-06T07:56:40.938Z,18.10
2019-03-06T07:59:16.626Z,14.67
2019-03-06T08:01:48.574Z,14.73
2019-03-06T08:04:17.370Z,12.23
2019-03-06T08:06:53.985Z,12.57
2019-03-06T08:09:29.393Z,13.93
2019-03-06T08:12:02.738Z,12.03
2019-03-06T08:14:48.986Z,12.83
2019-03-06T08:17:25.041Z,13.43
2019-03-06T08:20:18.713Z,15.87
2019-03-06T08:22:57.949Z,12.70
2019-03-06T08:25:52.126Z,11.30
2019-03-06T08:28:21.028Z,12.73
2019-03-06T08:31:13.832Z,13.07
2019-03-06T08:33:42.561Z,12.97
2019-03-06T08:36:11.154Z,12.60
2019-03-06T08:38:46.296Z,11.43
2019-03-06T08:41:15.075Z,11.93
2019-03-06T08:43:51.132Z,13.50
2019-03-06T08:46:21.464Z,12.47
2019-03-06T08:49:13.498Z,11.23
2019-03-06T08:51:52.574Z,11.90
2019-03-06T08:54:36.675Z,12.40
2019-03-06T08:57:16.416Z,10.87
2019-03-06T09:00:02.667Z,12.00
2019-03-06T09:02:35.714Z,12.50
2019-03-06T09:05:16.018Z,12.60
2019-03-06T09:08:04.125Z,11.20
2019-03-06T09:10:41.305Z,12.27
2019-03-06T09:13:26.774Z,11.90
2019-03-06T09:16:09.802Z,13.00
2019-03-06T09:18:46.160Z,12.00
2019-03-06T09:21:42.497Z,13.70
2019-03-06T09:24:28.785Z,12.23
2019-03-06T09:27:21.241Z,12.43
2019-03-06T09:29:57.710Z,14.37
2019-03-06T09:32:37.044Z,13.70
2019-03-06T09:35:17.713Z,12.87
2019-03-06T09:37:57.459Z,11.17
2019-03-06T09:40:40.282Z,13.53
2019-03-06T09:43:20.320Z,11.60
2019-03-06T09:46:02.342Z,10.97
2019-03-06T09:48:39.520Z,10.63
2019-03-06T09:51:12.802Z,10.80
2019-03-06T09:53:58.841Z,11.50
2019-03-06T09:56:52.215Z,11.97
2019-03-06T09:59:32.229Z,10.77
2019-03-06T10:02:07.088Z,12.27
2019-03-06T10:04:50.691Z,11.07
2019-03-06T10:07:37.092Z,13.70
2019-03-06T10:10:19.095Z,11.53
2019-03-06T10:12:49.406Z,10.03
2019-03-06T10:15:42.327Z,10.30
2019-03-06T10:18:15.650Z,10.90
2019-03-06T10:20:51.008Z,10.17
2019-03-06T10:23:19.595Z,10.60
2019-03-06T10:25:55.039Z,9.73
2019-03-06T10:28:27.792Z,9.97
2019-03-06T10:31:02.043Z,9.90
2019-03-06T10:33:30.523Z,10.73
2019-03-06T10:35:59.526Z,9.20
2019-03-06T10:38:35.688Z,8.87
2019-03-06T10:41:04.471Z,9.80
2019-03-06T10:43:33.159Z,9.80
2019-03-06T10:46:09.295Z,8.83
2019-03-06T10:48:37.897Z,9.73
2019-03-06T10:51:14.380Z,9.77
2019-03-06T10:53:49.343Z,9.97
2019-03-06T10:56:31.537Z,10.77
2019-03-06T10:59:00.589Z,9.77
2019-03-06T11:01:29.607Z,10.53
2019-03-06T11:04:09.259Z,9.70
2019-03-06T11:06:37.937Z,9.90
2019-03-06T11:09:15.930Z,9.23
2019-03-06T11:11:44.808Z,9.10
2019-03-06T11:14:13.607Z,8.97
2019-03-06T11:16:48.858Z,9.73
2019-03-06T11:19:18.052Z,8.93
2019-03-06T11:21:53.716Z,9.37
2019-03-06T11:24:22.421Z,8.47
2019-03-06T11:26:57.600Z,9.00
2019-03-06T11:29:26.111Z,9.27
2019-03-06T11:31:57.184Z,7.97
2019-03-06T11:34:32.987Z,11.97
2019-03-06T11:37:01.879Z,8.43
2019-03-06T11:39:37.738Z,11.30
2019-03-06T11:42:06.370Z,7.97
2019-03-06T11:44:41.433Z,12.87
2019-03-06T11:47:10.063Z,10.40
2019-03-06T11:49:45.855Z,8.37
2019-03-06T11:52:14.399Z,9.17
2019-03-06T11:55:05.744Z,8.23
2019-03-06T11:57:34.117Z,7.27
2019-03-06T12:00:10.176Z,7.50
2019-03-06T12:02:38.777Z,8.77
2019-03-06T12:05:08.274Z,9.53
2019-03-06T12:07:43.623Z,7.63
2019-03-06T12:10:12.168Z,6.43
2019-03-06T12:12:48.282Z,9.10
2019-03-06T12:15:17.210Z,6.87
2019-03-06T12:17:52.420Z,7.10
2019-03-06T12:20:21.348Z,7.43
2019-03-06T12:22:49.894Z,8.77
2019-03-06T12:25:25.907Z,9.10
2019-03-06T12:27:54.576Z,8.47
2019-03-06T12:30:29.736Z,7.70
2019-03-06T12:32:58.522Z,10.90
2019-03-06T12:35:34.580Z,9.33
2019-03-06T12:38:03.365Z,6.50
2019-03-06T12:40:38.889Z,9.47
2019-03-06T12:43:07.682Z,6.97
2019-03-06T12:45:43.021Z,7.57
2019-03-06T12:48:16.744Z,10.03
2019-03-06T12:50:56.006Z,7.17
2019-03-06T12:53:22.526Z,6.37
2019-03-06T12:56:04.166Z,10.00
2019-03-06T12:58:39.098Z,10.20
2019-03-06T13:01:14.469Z,7.13
2019-03-06T13:03:43.056Z,6.80
2019-03-06T13:06:24.529Z,7.97
2019-03-06T13:08:50.663Z,7.63
2019-03-06T13:11:19.307Z,6.73
2019-03-06T13:13:54.742Z,7.00
2019-03-06T13:16:23.602Z,6.93
2019-03-06T13:18:58.243Z,8.67
2019-03-06T13:21:27.037Z,6.77
2019-03-06T13:24:02.977Z,8.67
2019-03-06T13:26:31.631Z,7.67
2019-03-06T13:29:06.860Z,9.70
2019-03-06T13:31:35.696Z,7.23
2019-03-06T13:34:16.024Z,6.97
2019-03-06T13:36:44.829Z,7.23
2019-03-06T13:39:20.893Z,6.10
2019-03-06T13:41:49.503Z,6.37
2019-03-06T13:44:24.546Z,6.53
2019-03-06T13:46:53.241Z,9.43
2019-03-06T13:49:28.201Z,6.17
2019-03-06T13:51:56.923Z,7.63
2019-03-06T13:54:31.785Z,9.47
2019-03-06T13:57:06.818Z,7.73
2019-03-06T13:59:48.527Z,5.10
2019-03-06T14:02:17.043Z,5.87
2019-03-06T14:04:45.850Z,7.23
2019-03-06T14:07:20.827Z,6.73
2019-03-06T14:09:49.605Z,5.40
2019-03-06T14:12:24.208Z,4.50
2019-03-06T14:14:52.957Z,5.33
2019-03-06T14:17:21.697Z,5.67
2019-03-06T14:19:56.818Z,6.13
2019-03-06T14:22:25.324Z,5.00
2019-03-06T14:25:00.314Z,11.33
2019-03-06T14:27:31.180Z,6.20
2019-03-06T14:30:00.772Z,6.83
2019-03-06T14:32:36.219Z,5.90
2019-03-06T14:35:05.320Z,6.20
2019-03-06T14:37:40.816Z,7.50
2019-03-06T14:40:30.997Z,7.23
2019-03-06T14:43:07.867Z,6.20
2019-03-06T14:45:36.599Z,5.67
2019-03-06T14:48:05.861Z,6.17
2019-03-06T14:50:41.308Z,4.50
2019-03-06T14:53:09.836Z,5.10
2019-03-06T14:55:45.290Z,4.43
2019-03-06T14:58:20.632Z,4.50
2019-03-06T15:01:02.850Z,5.67
2019-03-06T15:03:31.367Z,5.47
2019-03-06T15:06:07.156Z,4.60
2019-03-06T15:08:35.941Z,4.73
2019-03-06T15:11:04.478Z,6.43
2019-03-06T15:13:39.866Z,6.87
2019-03-06T15:16:08.442Z,7.97
2019-03-06T15:18:44.569Z,7.07
2019-03-06T15:21:13.217Z,6.73
2019-03-06T15:23:41.905Z,11.10
2019-03-06T15:26:17.660Z,6.30
2019-03-06T15:28:48.074Z,5.87
2019-03-06T15:31:23.390Z,6.80
2019-03-06T15:33:51.932Z,6.20
2019-03-06T15:36:20.462Z,7.83
2019-03-06T15:38:56.555Z,6.93
2019-03-06T15:41:25.260Z,6.10
2019-03-06T15:44:00.583Z,5.80
2019-03-06T15:46:29.164Z,6.23
2019-03-06T15:49:04.326Z,5.90
2019-03-06T15:51:34.556Z,5.60
2019-03-06T15:54:03.419Z,11.20
2019-03-06T15:56:39.487Z,6.00
2019-03-06T15:59:15.305Z,9.10
2019-03-06T16:01:57.642Z,8.07
2019-03-06T16:04:26.225Z,6.30
2019-03-06T16:06:55.015Z,6.60
2019-03-06T16:09:30.257Z,13.03
2019-03-06T16:11:58.947Z,7.90
2019-03-06T16:14:34.504Z,6.13
2019-03-06T16:17:03.250Z,6.27
2019-03-06T16:19:32.064Z,7.20
2019-03-06T16:22:07.821Z,8.27
2019-03-06T16:24:37.636Z,6.77
2019-03-06T16:27:13.717Z,6.40
2019-03-06T16:29:42.264Z,7.03
2019-03-06T16:32:10.865Z,6.40
2019-03-06T16:34:47.126Z,6.30
2019-03-06T16:37:16.016Z,7.47
2019-03-06T16:39:51.366Z,8.00
2019-03-06T16:42:20.146Z,5.87
2019-03-06T16:44:49.040Z,8.17
2019-03-06T16:47:24.546Z,6.70
2019-03-06T16:49:53.127Z,7.20
2019-03-06T16:52:28.627Z,6.60
2019-03-06T16:54:57.272Z,8.00
2019-03-06T16:57:32.338Z,7.20
2019-03-06T17:00:35.329Z,8.80
2019-03-06T17:03:05.213Z,6.27
2019-03-06T17:05:40.488Z,6.90
2019-03-06T17:08:09.013Z,6.83
2019-03-06T17:10:38.365Z,7.40
2019-03-06T17:13:14.266Z,7.40
2019-03-06T17:15:42.926Z,10.50
2019-03-06T17:18:18.110Z,6.87
2019-03-06T17:20:46.976Z,7.67
2019-03-06T17:23:15.638Z,6.83
2019-03-06T17:25:50.561Z,9.53
2019-03-06T17:28:19.450Z,6.67
2019-03-06T17:30:55.234Z,6.70
2019-03-06T17:33:23.806Z,6.70
2019-03-06T17:35:52.459Z,6.63
2019-03-06T17:38:28.125Z,6.60
2019-03-06T17:40:56.634Z,6.97
2019-03-06T17:43:32.153Z,5.67
2019-03-06T17:46:00.669Z,6.47
2019-03-06T17:48:29.292Z,5.93
2019-03-06T17:51:04.664Z,7.23
2019-03-06T17:53:33.556Z,7.37
2019-03-06T17:56:09.615Z,6.97
2019-03-06T17:58:45.694Z,5.17
2019-03-06T18:01:27.981Z,5.63
2019-03-06T18:03:58.210Z,4.70
2019-03-06T18:06:26.834Z,5.80
2019-03-06T18:09:02.141Z,4.43
2019-03-06T18:11:30.727Z,4.87
2019-03-06T18:14:05.456Z,5.53
2019-03-06T18:16:34.345Z,4.10
2019-03-06T18:19:02.888Z,3.93
2019-03-06T18:21:38.631Z,4.67
2019-03-06T18:24:07.134Z,6.33
2019-03-06T18:26:42.508Z,6.27
2019-03-06T18:29:11.126Z,5.13
2019-03-06T18:31:39.838Z,5.20
2019-03-06T18:34:15.502Z,7.07
2019-03-06T18:36:44.267Z,5.33
2019-03-06T18:39:21.386Z,6.47
2019-03-06T18:41:49.958Z,9.47
2019-03-06T18:44:18.895Z,5.30
2019-03-06T18:46:53.862Z,5.37
2019-03-06T18:49:22.428Z,4.83
2019-03-06T18:51:57.731Z,4.70
2019-03-06T18:54:26.316Z,4.93
2019-03-06T18:56:55.305Z,4.30
2019-03-06T18:59:30.855Z,11.93
2019-03-06T19:02:06.606Z,6.10
2019-03-06T19:04:42.281Z,6.83
2019-03-06T19:07:11.096Z,6.97
2019-03-06T19:09:39.829Z,6.90
2019-03-06T19:12:15.695Z,5.40
2019-03-06T19:14:44.367Z,5.03
2019-03-06T19:17:20.195Z,4.03
2019-03-06T19:19:48.973Z,4.70
2019-03-06T19:22:17.602Z,7.80
2019-03-06T19:24:55.884Z,4.23
2019-03-06T19:27:24.399Z,3.60
2019-03-06T19:30:00.335Z,3.80
2019-03-06T19:32:29.070Z,7.37
2019-03-06T19:34:58.136Z,4.33
2019-03-06T19:37:33.400Z,4.87
2019-03-06T19:40:01.947Z,4.23
2019-03-06T19:42:37.223Z,7.13
2019-03-06T19:45:08.890Z,6.13
2019-03-06T19:47:37.650Z,4.40
2019-03-06T19:50:18.903Z,4.20
2019-03-06T19:52:47.428Z,6.60
2019-03-06T19:55:23.558Z,4.07
2019-03-06T19:58:10.077Z,5.47
2019-03-06T20:00:51.877Z,4.83
2019-03-06T20:03:26.532Z,4.00
2019-03-06T20:06:02.812Z,9.57
2019-03-06T20:08:31.673Z,4.87
2019-03-06T20:11:00.544Z,5.37
2019-03-06T20:13:35.946Z,4.93
2019-03-06T20:16:05.086Z,6.30
2019-03-06T20:18:41.046Z,4.17
2019-03-06T20:21:09.779Z,4.63
2019-03-06T20:23:38.603Z,6.80
2019-03-06T20:26:15.336Z,5.73
2019-03-06T20:28:44.793Z,9.77
2019-03-06T20:31:20.091Z,7.10
2019-03-06T20:33:48.622Z,7.00
2019-03-06T20:36:17.227Z,7.43
2019-03-06T20:38:52.559Z,8.40
2019-03-06T20:41:21.170Z,6.60
2019-03-06T20:43:56.888Z,7.90
2019-03-06T20:46:25.701Z,7.20
2019-03-06T20:48:54.661Z,8.33
2019-03-06T20:51:30.446Z,8.13
2019-03-06T20:53:59.010Z,9.20
2019-03-06T20:56:34.889Z,8.57
2019-03-06T20:59:03.461Z,7.73
2019-03-06T21:01:46.347Z,7.60
2019-03-06T21:04:22.038Z,9.70
2019-03-06T21:06:57.015Z,6.53
2019-03-06T21:09:25.945Z,6.03
2019-03-06T21:12:16.260Z,6.00
2019-03-06T21:14:51.765Z,5.97
2019-03-06T21:17:20.489Z,5.87
2019-03-06T21:19:55.618Z,5.53
2019-03-06T21:22:24.227Z,5.63
2019-03-06T21:24:59.482Z,5.37
2019-03-06T21:27:28.533Z,7.00
2019-03-06T21:29:57.052Z,6.13
2019-03-06T21:32:33.174Z,5.20
2019-03-06T21:35:01.862Z,5.70
2019-03-06T21:37:38.025Z,5.97
2019-03-06T21:40:09.775Z,6.20
2019-03-06T21:42:38.323Z,4.97
2019-03-06T21:45:17.133Z,7.33
2019-03-06T21:47:45.686Z,4.43
2019-03-06T21:50:24.825Z,6.60
2019-03-06T21:52:53.479Z,4.73
2019-03-06T21:55:22.013Z,4.63
2019-03-06T21:57:58.850Z,4.73
2019-03-06T22:00:27.579Z,5.13
2019-03-06T22:03:09.144Z,5.43
2019-03-06T22:05:44.620Z,4.30
2019-03-06T22:08:19.891Z,4.97
2019-03-06T22:10:48.549Z,4.17
2019-03-06T22:13:17.190Z,5.23
2019-03-06T22:15:52.428Z,3.60
2019-03-06T22:18:21.056Z,3.73
2019-03-06T22:21:00.242Z,4.63
2019-03-06T22:23:29.139Z,5.37
2019-03-06T22:25:58.030Z,7.17
2019-03-06T22:28:33.781Z,5.90
2019-03-06T22:31:02.779Z,5.07
2019-03-06T22:33:38.444Z,4.60
2019-03-06T22:36:07.233Z,5.73
2019-03-06T22:38:36.573Z,4.20
2019-03-06T22:41:12.407Z,4.30
2019-03-06T22:43:41.410Z,5.13
2019-03-06T22:46:17.632Z,3.90
2019-03-06T22:48:46.241Z,8.97
2019-03-06T22:51:15.408Z,5.10
2019-03-06T22:53:50.785Z,4.43
2019-03-06T22:56:30.926Z,4.50
2019-03-06T22:59:13.626Z,4.43
2019-03-06T23:01:42.351Z,5.90
2019-03-06T23:04:24.101Z,5.77
2019-03-06T23:06:59.240Z,5.23
2019-03-06T23:09:35.101Z,5.27
2019-03-06T23:12:03.786Z,4.77
2019-03-06T23:14:32.612Z,3.83
2019-03-06T23:17:08.528Z,6.10
2019-03-06T23:19:37.420Z,5.57
2019-03-06T23:22:13.065Z,4.63
2019-03-06T23:24:41.610Z,6.90
2019-03-06T23:27:10.345Z,6.23
2019-03-06T23:29:45.491Z,4.87
2019-03-06T23:32:14.268Z,7.53
2019-03-06T23:34:49.919Z,5.30
2019-03-06T23:37:18.465Z,6.90
2019-03-06T23:39:46.957Z,6.30
2019-03-06T23:42:22.414Z,5.93
2019-03-06T23:44:51.012Z,5.10
2019-03-06T23:47:27.090Z,6.40
2019-03-06T23:49:55.978Z,5.23
2019-03-06T23:52:26.124Z,4.93
2019-03-06T23:55:01.744Z,4.77
2019-03-06T23:57:30.625Z,5.70
